WetterOnline ( https://www.wetteronline.ch )

Wetter aktuell Burg

Aktuelles Wetter: Genthin (39m)

6-stündlich | Neueste Meldungen
Ortszeit Temperatur Wetter
Fr, 06.12. 19:00 3.5° C leichter Regen
Fr, 06.12. 13:00 2.5° C leichter Regen
Fr, 06.12. 7:00 1.2° C bewölkt
Fr, 06.12. 1:00 0.1° C -
Do, 05.12. 19:00 0.3° C leicht bewölkt
Do, 05.12. 13:00 4.3° C wolkenlos
Do, 05.12. 7:00 -3.0° C leicht bewölkt
Do, 05.12. 1:00 -3.2° C wolkenlos
Ortszeit Temperatur Wetter
Fr, 06.12. 19:00 3.5° C leichter Regen
Fr, 06.12. 18:50 3.5° C leichter Regen
Fr, 06.12. 18:40 3.5° C leichter Regen
Fr, 06.12. 18:30 3.5° C bedeckt
Fr, 06.12. 18:20 3.5° C bedeckt
Fr, 06.12. 18:10 3.5° C bedeckt
Fr, 06.12. 18:00 3.2° C bedeckt
Fr, 06.12. 17:30 3.0° C bedeckt
Fr, 06.12. 17:00 2.7° C bedeckt
Fr, 06.12. 16:30 2.6° C bewölkt
Fr, 06.12. 16:00 2.5° C Regen
Ortszeit Relative Feuchte Sichtweite
Fr, 06.12. 19:00 91% 14 km
Fr, 06.12. 13:00 94% 6 km
Fr, 06.12. 7:00 74% 19 km
Fr, 06.12. 1:00 86% 12 km
Do, 05.12. 19:00 92% 10 km
Do, 05.12. 13:00 73% 27 km
Do, 05.12. 7:00 97% 6 km
Do, 05.12. 1:00 96% 5.0 km
Ortszeit Relative Feuchte Sichtweite
Fr, 06.12. 19:00 91% 14 km
Fr, 06.12. 18:50 91% -
Fr, 06.12. 18:40 89% -
Fr, 06.12. 18:30 87% 17 km
Fr, 06.12. 18:20 87% -
Fr, 06.12. 18:10 87% -
Fr, 06.12. 18:00 89% 18 km
Fr, 06.12. 17:30 89% 16 km
Fr, 06.12. 17:00 90% 16 km
Fr, 06.12. 16:30 92% 13 km
Fr, 06.12. 16:00 94% 11 km
Ortszeit Niederschlagsmenge Niederschlagsart
Fr, 06.12. 19:00 2 l/m2 in 12 Std. Regen
Fr, 06.12. 13:00 0.9 l/m2 in 6 Std. Regen
Fr, 06.12. 7:00 0.0 l/m2 in 12 Std. -
Fr, 06.12. 1:00 0.0 l/m2 in 6 Std. -
Do, 05.12. 19:00 0.0 l/m2 in 12 Std. -
Do, 05.12. 13:00 0.0 l/m2 in 6 Std. -
Do, 05.12. 7:00 0.0 l/m2 in 12 Std. -
Do, 05.12. 1:00 0.0 l/m2 in 6 Std. -
Ortszeit Niederschlagsmenge Niederschlagsart
Fr, 06.12. 19:00 0.1 l/m2 in 1 Std. Regen
Fr, 06.12. 18:50 keine Meldung -
Fr, 06.12. 18:40 keine Meldung -
Fr, 06.12. 18:30 0.1 l/m2 in 1 Std. Schneeregen
Fr, 06.12. 18:20 keine Meldung -
Fr, 06.12. 18:10 keine Meldung -
Fr, 06.12. 18:00 0.1 l/m2 in 1 Std. Regen
Fr, 06.12. 17:30 0.0 l/m2 in 1 Std. -
Fr, 06.12. 17:00 0.1 l/m2 in 1 Std. Regen
Fr, 06.12. 16:30 0.1 l/m2 in 1 Std. Schneeregen
Fr, 06.12. 16:00 0.2 l/m2 in 1 Std. Regen
Ortszeit Stärke Spitze Richtung
km/h Bft. km/h Grad Sektor
Fr, 06.12. 19:00 14 3 40 200° S
Fr, 06.12. 13:00 11 2 36 210° SW
Fr, 06.12. 7:00 13 3 28 210° SW
Fr, 06.12. 1:00 9 2 19 190° S
Do, 05.12. 19:00 7 2 18 210° SW
Do, 05.12. 13:00 6 1 15 250° W
Do, 05.12. 7:00 4 1 14 290° W
Do, 05.12. 1:00 4 1 7 180° S
Ortszeit Stärke Spitze Richtung
km/h Bft. km/h Grad Sektor
Fr, 06.12. 19:00 14 3 40 200° S
Fr, 06.12. 18:50 14 3 - 200° S
Fr, 06.12. 18:40 14 3 - 200° S
Fr, 06.12. 18:30 14 3 40 200° S
Fr, 06.12. 18:20 14 3 - 200° S
Fr, 06.12. 18:10 14 3 - 200° S
Fr, 06.12. 18:00 13 3 30 200° S
Fr, 06.12. 17:30 13 3 30 200° S
Fr, 06.12. 17:00 13 3 31 200° S
Fr, 06.12. 16:30 14 3 32 210° SW
Fr, 06.12. 16:00 14 3 29 200° S
Ortszeit Untergrenze Bedeckung Gattung
total tief tief mittel hoch
Fr, 06.12. 19:00 780 m 7/8 7/8 - - -
Fr, 06.12. 13:00 690 m 8/8 8/8 - - -
Fr, 06.12. 7:00 1290 m 8/8 7/8 - - -
Fr, 06.12. 1:00 - - - - - -
Do, 05.12. 19:00 10500 m 3/8 0/8 - - -
Do, 05.12. 13:00 - 0/8 0/8 - - -
Do, 05.12. 7:00 10500 m 4/8 0/8 - - -
Do, 05.12. 1:00 - 0/8 0/8 - - -
Ortszeit Bedeckungsgrad in Achtel und Wolkenuntergrenze
Fr, 06.12. 19:00 2(780m) 7(1350m) 7(1800m)
Fr, 06.12. 18:50 2(780m) 7(1350m) 7(1800m)
Fr, 06.12. 18:40 6(780m) 7(990m) 8(1170m)
Fr, 06.12. 18:30 6(780m) 8(2100m)
Fr, 06.12. 18:20 6(780m) 8(2100m)
Fr, 06.12. 18:10 4(840m) 5(1380m) 8(2100m)
Fr, 06.12. 18:00 3(720m) 5(990m) 8(2100m)
Fr, 06.12. 17:30 2(750m) 6(1170m) 8(1800m)
Fr, 06.12. 17:00 7(750m) 8(1020m) 8(1500m)
Fr, 06.12. 16:30 7(720m) 7(1290m) 7(1500m)
Fr, 06.12. 16:00 7(690m) 8(1320m) 8(1500m)
Ortszeit Luftdruck NN (hPa) Tendenz (hPa in 3 Std.)
Fr, 06.12. 19:00 1007 - 1,5
Fr, 06.12. 13:00 1010 - 1,3
Fr, 06.12. 7:00 1012 - 1,2
Fr, 06.12. 1:00 1015 - 1,7
Do, 05.12. 19:00 1018 - 1,0
Do, 05.12. 13:00 1020 - 0,9
Do, 05.12. 7:00 1020 - 0,1
Do, 05.12. 1:00 1021 - 1,2
Ortszeit Luftdruck NN (hPa) Tendenz (hPa in 3 Std.)
Fr, 06.12. 19:00 1007 - 1,5
Fr, 06.12. 18:50 1007 keine Meldung
Fr, 06.12. 18:40 1007 keine Meldung
Fr, 06.12. 18:30 1007 - 1,6
Fr, 06.12. 18:20 1007 keine Meldung
Fr, 06.12. 18:10 1007 keine Meldung
Fr, 06.12. 18:00 1007 - 1,6
Fr, 06.12. 17:30 1007 - 1,7
Fr, 06.12. 17:00 1008 - 1,9
Fr, 06.12. 16:30 1008 - 1,9
Fr, 06.12. 16:00 1008 - 2,1
Ortszeit Schneehöhe (cm)
Fr, 06.12. 19:00 0
Fr, 06.12. 13:00 0
Fr, 06.12. 7:00 0
Fr, 06.12. 1:00 0
Do, 05.12. 19:00 0
Do, 05.12. 13:00 0
Do, 05.12. 7:00 0
Do, 05.12. 1:00 0
Ortszeit Schneehöhe (cm)
Fr, 06.12. 19:00 0
Fr, 06.12. 18:50 0
Fr, 06.12. 18:40 0
Fr, 06.12. 18:30 0
Fr, 06.12. 18:20 0
Fr, 06.12. 18:10 0
Fr, 06.12. 18:00 0
Fr, 06.12. 17:30 0
Fr, 06.12. 17:00 0
Fr, 06.12. 16:30 0
Fr, 06.12. 16:00 0
Link zu dieser Seite / Seite empfehlen

Das Wetter in ...